sensor_id;sensor_type;location;lat;lon;timestamp;pressure;altitude;pressure_sealevel;temperature;humidity
64844;BME280;51310;52.198;5.422;2023-05-02T00:02:09;101815.97;;;9.47;100.00
64844;BME280;51310;52.198;5.422;2023-05-02T00:04:35;101810.44;;;9.51;100.00
64844;BME280;51310;52.198;5.422;2023-05-02T00:07:00;101809.69;;;9.52;100.00
64844;BME280;51310;52.198;5.422;2023-05-02T00:09:28;101802.13;;;9.68;100.00
64844;BME280;51310;52.198;5.422;2023-05-02T00:11:53;101809.47;;;9.72;100.00
64844;BME280;51310;52.198;5.422;2023-05-02T00:14:19;101805.22;;;9.73;100.00
64844;BME280;51310;52.198;5.422;2023-05-02T00:16:45;101814.75;;;9.81;100.00
64844;BME280;51310;52.198;5.422;2023-05-02T00:19:10;101808.88;;;9.75;100.00
64844;BME280;51310;52.198;5.422;2023-05-02T00:21:36;101808.50;;;9.72;100.00
64844;BME280;51310;52.198;5.422;2023-05-02T00:24:02;101814.06;;;9.68;100.00
64844;BME280;51310;52.198;5.422;2023-05-02T00:26:27;101823.56;;;9.76;100.00
64844;BME280;51310;52.198;5.422;2023-05-02T00:28:54;101825.41;;;9.77;100.00
64844;BME280;51310;52.198;5.422;2023-05-02T00:31:19;101822.31;;;9.72;100.00
64844;BME280;51310;52.198;5.422;2023-05-02T00:33:45;101820.44;;;9.78;100.00
64844;BME280;51310;52.198;5.422;2023-05-02T00:36:18;101823.56;;;9.83;100.00
64844;BME280;51310;52.198;5.422;2023-05-02T00:38:44;101814.59;;;9.72;100.00
64844;BME280;51310;52.198;5.422;2023-05-02T00:41:10;101822.47;;;9.81;100.00
64844;BME280;51310;52.198;5.422;2023-05-02T00:43:36;101828.69;;;9.76;100.00
64844;BME280;51310;52.198;5.422;2023-05-02T00:46:05;101830.81;;;9.57;100.00
64844;BME280;51310;52.198;5.422;2023-05-02T00:48:32;101838.28;;;9.70;100.00
64844;BME280;51310;52.198;5.422;2023-05-02T00:50:58;101843.63;;;9.64;100.00
64844;BME280;51310;52.198;5.422;2023-05-02T00:53:23;101849.69;;;9.64;100.00
64844;BME280;51310;52.198;5.422;2023-05-02T00:55:49;101850.94;;;9.75;100.00
64844;BME280;51310;52.198;5.422;2023-05-02T00:58:17;101856.84;;;9.67;100.00
64844;BME280;51310;52.198;5.422;2023-05-02T01:12:11;101855.81;;;9.36;100.00
64844;BME280;51310;52.198;5.422;2023-05-02T01:14:42;101856.00;;;9.38;100.00
64844;BME280;51310;52.198;5.422;2023-05-02T01:17:13;101870.69;;;9.39;100.00
64844;BME280;51310;52.198;5.422;2023-05-02T01:19:46;101859.50;;;9.24;100.00
64844;BME280;51310;52.198;5.422;2023-05-02T01:22:16;101854.00;;;9.28;100.00
64844;BME280;51310;52.198;5.422;2023-05-02T01:27:39;101859.88;;;9.27;100.00
64844;BME280;51310;52.198;5.422;2023-05-02T01:30:10;101854.72;;;9.20;100.00
64844;BME280;51310;52.198;5.422;2023-05-02T01:32:38;101858.94;;;9.34;100.00
64844;BME280;51310;52.198;5.422;2023-05-02T01:35:08;101868.66;;;9.36;100.00
64844;BME280;51310;52.198;5.422;2023-05-02T01:37:38;101878.22;;;9.30;100.00
64844;BME280;51310;52.198;5.422;2023-05-02T01:40:08;101867.97;;;9.16;100.00
64844;BME280;51310;52.198;5.422;2023-05-02T01:42:37;101890.16;;;9.08;100.00
64844;BME280;51310;52.198;5.422;2023-05-02T01:45:05;101889.06;;;8.99;100.00
64844;BME280;51310;52.198;5.422;2023-05-02T01:47:35;101889.59;;;9.11;100.00
64844;BME280;51310;52.198;5.422;2023-05-02T01:50:05;101888.53;;;8.94;100.00
64844;BME280;51310;52.198;5.422;2023-05-02T01:52:33;101892.00;;;8.95;100.00
64844;BME280;51310;52.198;5.422;2023-05-02T01:55:00;101890.91;;;9.00;100.00
64844;BME280;51310;52.198;5.422;2023-05-02T01:57:27;101899.34;;;8.99;100.00
64844;BME280;51310;52.198;5.422;2023-05-02T01:59:56;101895.84;;;8.91;100.00
64844;BME280;51310;52.198;5.422;2023-05-02T02:02:25;101886.84;;;9.09;100.00
64844;BME280;51310;52.198;5.422;2023-05-02T02:04:54;101884.28;;;9.02;100.00
64844;BME280;51310;52.198;5.422;2023-05-02T02:07:21;101887.22;;;8.91;100.00
64844;BME280;51310;52.198;5.422;2023-05-02T02:09:46;101885.75;;;9.00;100.00
64844;BME280;51310;52.198;5.422;2023-05-02T02:12:27;101890.91;;;8.93;100.00
64844;BME280;51310;52.198;5.422;2023-05-02T02:15:02;101901.72;;;9.04;100.00
64844;BME280;51310;52.198;5.422;2023-05-02T02:17:48;101903.94;;;8.94;100.00
64844;BME280;51310;52.198;5.422;2023-05-02T02:20:16;101905.03;;;9.11;100.00
64844;BME280;51310;52.198;5.422;2023-05-02T02:22:44;101924.63;;;8.96;100.00
64844;BME280;51310;52.198;5.422;2023-05-02T02:25:15;101926.28;;;8.95;100.00
64844;BME280;51310;52.198;5.422;2023-05-02T02:27:42;101915.66;;;8.78;100.00
64844;BME280;51310;52.198;5.422;2023-05-02T02:30:09;101918.75;;;8.82;100.00
64844;BME280;51310;52.198;5.422;2023-05-02T02:32:35;101911.97;;;8.83;100.00
64844;BME280;51310;52.198;5.422;2023-05-02T02:35:01;101919.88;;;8.85;100.00
64844;BME280;51310;52.198;5.422;2023-05-02T02:40:40;101924.09;;;8.84;100.00
64844;BME280;51310;52.198;5.422;2023-05-02T02:43:41;101931.25;;;8.79;100.00
64844;BME280;51310;52.198;5.422;2023-05-02T02:46:43;101921.13;;;8.74;100.00
64844;BME280;51310;52.198;5.422;2023-05-02T02:49:26;101923.00;;;8.75;100.00
64844;BME280;51310;52.198;5.422;2023-05-02T02:52:33;101933.25;;;8.82;100.00
64844;BME280;51310;52.198;5.422;2023-05-02T02:55:23;101941.50;;;8.87;100.00
64844;BME280;51310;52.198;5.422;2023-05-02T02:58:20;101942.97;;;8.85;100.00
64844;BME280;51310;52.198;5.422;2023-05-02T03:00:50;101936.72;;;8.75;100.00
64844;BME280;51310;52.198;5.422;2023-05-02T03:03:21;101946.25;;;8.69;100.00
64844;BME280;51310;52.198;5.422;2023-05-02T03:05:47;101951.38;;;8.62;100.00
64844;BME280;51310;52.198;5.422;2023-05-02T03:08:13;101962.03;;;8.87;100.00
64844;BME280;51310;52.198;5.422;2023-05-02T03:10:39;101969.69;;;8.65;100.00
64844;BME280;51310;52.198;5.422;2023-05-02T03:13:05;101960.75;;;8.83;100.00
64844;BME280;51310;52.198;5.422;2023-05-02T03:18:18;101964.78;;;8.81;100.00
64844;BME280;51310;52.198;5.422;2023-05-02T03:20:44;101966.41;;;8.66;100.00
64844;BME280;51310;52.198;5.422;2023-05-02T03:23:10;101963.16;;;8.81;100.00
64844;BME280;51310;52.198;5.422;2023-05-02T03:25:35;101964.97;;;8.75;100.00
64844;BME280;51310;52.198;5.422;2023-05-02T03:28:02;101968.66;;;8.85;100.00
64844;BME280;51310;52.198;5.422;2023-05-02T03:30:27;101975.03;;;8.81;100.00
64844;BME280;51310;52.198;5.422;2023-05-02T03:32:54;101975.44;;;8.77;100.00
64844;BME280;51310;52.198;5.422;2023-05-02T03:35:19;101980.31;;;8.68;100.00
64844;BME280;51310;52.198;5.422;2023-05-02T03:37:45;101995.72;;;8.61;100.00
64844;BME280;51310;52.198;5.422;2023-05-02T03:40:11;101998.63;;;8.57;100.00
64844;BME280;51310;52.198;5.422;2023-05-02T03:42:36;101997.13;;;8.45;100.00
64844;BME280;51310;52.198;5.422;2023-05-02T03:45:09;102008.38;;;8.25;100.00
64844;BME280;51310;52.198;5.422;2023-05-02T03:47:35;102010.97;;;8.32;100.00
64844;BME280;51310;52.198;5.422;2023-05-02T03:50:00;102011.34;;;8.35;100.00
64844;BME280;51310;52.198;5.422;2023-05-02T03:52:27;102008.72;;;8.21;100.00
64844;BME280;51310;52.198;5.422;2023-05-02T03:54:53;102003.59;;;8.21;100.00
64844;BME280;51310;52.198;5.422;2023-05-02T03:57:19;102007.78;;;8.20;100.00
64844;BME280;51310;52.198;5.422;2023-05-02T03:59:45;102006.59;;;8.38;100.00
64844;BME280;51310;52.198;5.422;2023-05-02T04:02:11;102004.03;;;8.38;100.00
64844;BME280;51310;52.198;5.422;2023-05-02T04:04:37;102009.03;;;8.44;100.00
64844;BME280;51310;52.198;5.422;2023-05-02T04:07:04;102016.66;;;8.37;100.00
64844;BME280;51310;52.198;5.422;2023-05-02T04:09:33;102014.00;;;8.43;100.00
64844;BME280;51310;52.198;5.422;2023-05-02T04:11:58;102015.00;;;8.30;100.00
64844;BME280;51310;52.198;5.422;2023-05-02T04:14:24;102020.22;;;8.45;100.00
64844;BME280;51310;52.198;5.422;2023-05-02T04:16:53;102022.16;;;8.40;100.00
64844;BME280;51310;52.198;5.422;2023-05-02T04:19:18;102022.00;;;8.38;100.00
64844;BME280;51310;52.198;5.422;2023-05-02T04:21:44;102032.41;;;8.33;100.00
64844;BME280;51310;52.198;5.422;2023-05-02T04:24:10;102043.31;;;8.17;100.00
64844;BME280;51310;52.198;5.422;2023-05-02T04:26:36;102045.31;;;8.13;100.00
64844;BME280;51310;52.198;5.422;2023-05-02T04:29:02;102046.66;;;7.96;100.00
64844;BME280;51310;52.198;5.422;2023-05-02T04:31:32;102057.16;;;7.78;100.00
64844;BME280;51310;52.198;5.422;2023-05-02T04:33:57;102069.56;;;7.75;100.00
64844;BME280;51310;52.198;5.422;2023-05-02T04:36:24;102063.16;;;7.71;100.00
64844;BME280;51310;52.198;5.422;2023-05-02T04:38:53;102076.81;;;7.65;100.00
64844;BME280;51310;52.198;5.422;2023-05-02T04:41:19;102075.72;;;7.63;100.00
64844;BME280;51310;52.198;5.422;2023-05-02T04:43:46;102085.69;;;7.74;100.00
64844;BME280;51310;52.198;5.422;2023-05-02T04:46:11;102076.09;;;7.66;100.00
64844;BME280;51310;52.198;5.422;2023-05-02T04:48:37;102088.50;;;7.83;100.00
64844;BME280;51310;52.198;5.422;2023-05-02T04:51:07;102098.88;;;7.77;100.00
64844;BME280;51310;52.198;5.422;2023-05-02T04:53:34;102097.38;;;7.72;100.00
64844;BME280;51310;52.198;5.422;2023-05-02T04:56:00;102107.66;;;7.79;100.00
64844;BME280;51310;52.198;5.422;2023-05-02T04:58:25;102101.56;;;7.91;100.00
64844;BME280;51310;52.198;5.422;2023-05-02T05:00:51;102100.53;;;7.76;100.00
64844;BME280;51310;52.198;5.422;2023-05-02T05:03:17;102105.25;;;7.73;100.00
64844;BME280;51310;52.198;5.422;2023-05-02T05:05:42;102107.47;;;7.77;100.00
64844;BME280;51310;52.198;5.422;2023-05-02T05:08:08;102103.13;;;7.84;100.00
64844;BME280;51310;52.198;5.422;2023-05-02T05:10:34;102113.91;;;7.81;100.00
64844;BME280;51310;52.198;5.422;2023-05-02T05:13:00;102112.94;;;7.73;100.00
64844;BME280;51310;52.198;5.422;2023-05-02T05:15:25;102119.56;;;7.78;100.00
64844;BME280;51310;52.198;5.422;2023-05-02T05:17:51;102128.44;;;7.68;100.00
64844;BME280;51310;52.198;5.422;2023-05-02T05:20:17;102141.25;;;7.68;100.00
64844;BME280;51310;52.198;5.422;2023-05-02T05:22:44;102143.09;;;7.69;100.00
64844;BME280;51310;52.198;5.422;2023-05-02T05:25:10;102140.88;;;7.65;100.00
64844;BME280;51310;52.198;5.422;2023-05-02T05:27:36;102141.16;;;7.73;100.00
64844;BME280;51310;52.198;5.422;2023-05-02T05:30:06;102147.56;;;7.57;100.00
64844;BME280;51310;52.198;5.422;2023-05-02T05:32:33;102148.09;;;7.54;100.00
64844;BME280;51310;52.198;5.422;2023-05-02T05:34:59;102159.88;;;7.47;100.00
64844;BME280;51310;52.198;5.422;2023-05-02T05:37:25;102162.59;;;7.41;100.00
64844;BME280;51310;52.198;5.422;2023-05-02T05:39:51;102161.06;;;7.36;100.00
64844;BME280;51310;52.198;5.422;2023-05-02T05:42:17;102158.38;;;7.42;100.00
64844;BME280;51310;52.198;5.422;2023-05-02T05:44:42;102161.75;;;7.48;100.00
64844;BME280;51310;52.198;5.422;2023-05-02T05:47:08;102165.00;;;7.47;100.00
64844;BME280;51310;52.198;5.422;2023-05-02T05:49:34;102168.91;;;7.50;100.00
64844;BME280;51310;52.198;5.422;2023-05-02T05:52:03;102177.13;;;7.68;100.00
64844;BME280;51310;52.198;5.422;2023-05-02T05:54:28;102181.25;;;7.60;100.00
64844;BME280;51310;52.198;5.422;2023-05-02T05:56:54;102188.03;;;7.79;100.00
64844;BME280;51310;52.198;5.422;2023-05-02T05:59:20;102190.00;;;7.75;100.00
64844;BME280;51310;52.198;5.422;2023-05-02T06:01:46;102194.69;;;7.65;100.00
64844;BME280;51310;52.198;5.422;2023-05-02T06:04:11;102198.03;;;7.71;100.00
64844;BME280;51310;52.198;5.422;2023-05-02T06:06:37;102200.75;;;7.85;100.00
64844;BME280;51310;52.198;5.422;2023-05-02T06:09:03;102204.81;;;7.90;100.00
64844;BME280;51310;52.198;5.422;2023-05-02T06:11:29;102204.69;;;7.96;100.00
64844;BME280;51310;52.198;5.422;2023-05-02T06:13:54;102203.19;;;7.91;100.00
64844;BME280;51310;52.198;5.422;2023-05-02T06:16:20;102207.31;;;7.83;100.00
64844;BME280;51310;52.198;5.422;2023-05-02T06:18:46;102214.34;;;7.91;100.00
64844;BME280;51310;52.198;5.422;2023-05-02T06:21:13;102214.41;;;7.98;100.00
64844;BME280;51310;52.198;5.422;2023-05-02T06:23:38;102218.63;;;7.98;100.00
64844;BME280;51310;52.198;5.422;2023-05-02T06:26:05;102222.69;;;8.03;100.00
64844;BME280;51310;52.198;5.422;2023-05-02T06:28:31;102226.47;;;8.12;100.00
64844;BME280;51310;52.198;5.422;2023-05-02T06:31:04;102234.22;;;7.99;100.00
64844;BME280;51310;52.198;5.422;2023-05-02T06:33:32;102229.84;;;7.86;100.00
64844;BME280;51310;52.198;5.422;2023-05-02T06:35:58;102237.75;;;7.87;100.00
64844;BME280;51310;52.198;5.422;2023-05-02T06:38:24;102241.75;;;7.85;100.00
64844;BME280;51310;52.198;5.422;2023-05-02T06:40:50;102243.50;;;7.79;100.00
64844;BME280;51310;52.198;5.422;2023-05-02T06:43:17;102258.50;;;7.76;100.00
64844;BME280;51310;52.198;5.422;2023-05-02T06:45:43;102259.03;;;7.73;100.00
64844;BME280;51310;52.198;5.422;2023-05-02T06:48:09;102268.22;;;7.78;100.00
64844;BME280;51310;52.198;5.422;2023-05-02T06:50:35;102271.31;;;7.76;100.00
64844;BME280;51310;52.198;5.422;2023-05-02T06:53:02;102281.44;;;7.81;100.00
64844;BME280;51310;52.198;5.422;2023-05-02T06:55:28;102280.31;;;7.79;100.00
64844;BME280;51310;52.198;5.422;2023-05-02T06:57:54;102279.19;;;7.77;100.00
64844;BME280;51310;52.198;5.422;2023-05-02T07:00:20;102299.19;;;7.80;100.00
64844;BME280;51310;52.198;5.422;2023-05-02T07:02:48;102293.47;;;7.75;100.00
64844;BME280;51310;52.198;5.422;2023-05-02T07:05:14;102295.94;;;7.68;100.00
64844;BME280;51310;52.198;5.422;2023-05-02T07:07:44;102311.53;;;7.57;100.00
64844;BME280;51310;52.198;5.422;2023-05-02T07:10:10;102310.31;;;7.60;100.00
64844;BME280;51310;52.198;5.422;2023-05-02T07:12:37;102312.63;;;7.72;100.00
64844;BME280;51310;52.198;5.422;2023-05-02T07:15:06;102305.03;;;7.79;100.00
64844;BME280;51310;52.198;5.422;2023-05-02T07:17:32;102307.03;;;7.94;100.00
64844;BME280;51310;52.198;5.422;2023-05-02T07:19:58;102321.59;;;7.88;100.00
64844;BME280;51310;52.198;5.422;2023-05-02T07:22:24;102320.72;;;7.75;100.00
64844;BME280;51310;52.198;5.422;2023-05-02T07:24:57;102320.41;;;7.79;100.00
64844;BME280;51310;52.198;5.422;2023-05-02T07:27:24;102328.59;;;7.76;100.00
64844;BME280;51310;52.198;5.422;2023-05-02T07:29:50;102333.09;;;7.85;100.00
64844;BME280;51310;52.198;5.422;2023-05-02T07:32:16;102331.47;;;7.85;100.00
64844;BME280;51310;52.198;5.422;2023-05-02T07:34:42;102333.31;;;7.86;100.00
64844;BME280;51310;52.198;5.422;2023-05-02T07:37:08;102326.56;;;8.07;100.00
64844;BME280;51310;52.198;5.422;2023-05-02T07:39:34;102332.03;;;8.02;100.00
64844;BME280;51310;52.198;5.422;2023-05-02T07:42:00;102333.84;;;8.16;100.00
64844;BME280;51310;52.198;5.422;2023-05-02T07:44:25;102331.78;;;8.14;100.00
64844;BME280;51310;52.198;5.422;2023-05-02T07:46:51;102332.47;;;8.26;100.00
64844;BME280;51310;52.198;5.422;2023-05-02T07:49:18;102340.44;;;8.34;100.00
64844;BME280;51310;52.198;5.422;2023-05-02T07:51:44;102342.72;;;8.26;100.00
64844;BME280;51310;52.198;5.422;2023-05-02T07:54:20;102338.78;;;8.35;100.00
64844;BME280;51310;52.198;5.422;2023-05-02T07:56:46;102350.56;;;8.07;100.00
64844;BME280;51310;52.198;5.422;2023-05-02T07:59:13;102342.72;;;7.93;100.00
64844;BME280;51310;52.198;5.422;2023-05-02T08:01:40;102351.03;;;7.97;100.00
64844;BME280;51310;52.198;5.422;2023-05-02T08:04:06;102353.13;;;8.07;100.00
64844;BME280;51310;52.198;5.422;2023-05-02T08:06:32;102362.22;;;8.18;100.00
64844;BME280;51310;52.198;5.422;2023-05-02T08:08:58;102363.19;;;8.38;100.00
64844;BME280;51310;52.198;5.422;2023-05-02T08:11:24;102365.34;;;8.35;100.00
64844;BME280;51310;52.198;5.422;2023-05-02T08:13:51;102365.31;;;8.48;100.00
64844;BME280;51310;52.198;5.422;2023-05-02T08:16:17;102376.19;;;8.53;100.00
64844;BME280;51310;52.198;5.422;2023-05-02T08:18:43;102362.59;;;8.47;100.00
64844;BME280;51310;52.198;5.422;2023-05-02T08:21:09;102376.13;;;8.86;100.00
64844;BME280;51310;52.198;5.422;2023-05-02T08:23:35;102374.69;;;8.88;100.00
64844;BME280;51310;52.198;5.422;2023-05-02T08:26:02;102382.03;;;8.52;100.00
64844;BME280;51310;52.198;5.422;2023-05-02T08:28:28;102382.38;;;8.48;100.00
64844;BME280;51310;52.198;5.422;2023-05-02T08:30:55;102384.28;;;8.56;100.00
64844;BME280;51310;52.198;5.422;2023-05-02T08:33:20;102389.09;;;8.80;100.00
64844;BME280;51310;52.198;5.422;2023-05-02T08:35:47;102390.25;;;8.89;100.00
64844;BME280;51310;52.198;5.422;2023-05-02T08:38:12;102395.91;;;9.07;100.00
64844;BME280;51310;52.198;5.422;2023-05-02T08:40:38;102396.81;;;9.27;100.00
64844;BME280;51310;52.198;5.422;2023-05-02T08:43:04;102400.53;;;9.36;100.00
64844;BME280;51310;52.198;5.422;2023-05-02T08:45:36;102398.63;;;9.28;100.00
64844;BME280;51310;52.198;5.422;2023-05-02T08:48:09;102391.88;;;9.63;100.00
64844;BME280;51310;52.198;5.422;2023-05-02T08:50:38;102393.47;;;9.48;98.83
64844;BME280;51310;52.198;5.422;2023-05-02T08:53:05;102408.16;;;9.49;97.34
64844;BME280;51310;52.198;5.422;2023-05-02T08:55:36;102381.47;;;9.76;94.84
64844;BME280;51310;52.198;5.422;2023-05-02T08:58:05;102402.03;;;9.41;89.70
64844;BME280;51310;52.198;5.422;2023-05-02T09:00:32;102408.28;;;9.43;87.07
64844;BME280;51310;52.198;5.422;2023-05-02T09:03:30;102415.06;;;9.43;85.32
64844;BME280;51310;52.198;5.422;2023-05-02T09:06:14;102408.09;;;9.42;83.11
64844;BME280;51310;52.198;5.422;2023-05-02T09:08:42;102412.09;;;9.67;83.84
64844;BME280;51310;52.198;5.422;2023-05-02T09:11:10;102435.78;;;9.64;85.30
64844;BME280;51310;52.198;5.422;2023-05-02T09:13:39;102427.19;;;9.71;78.15
64844;BME280;51310;52.198;5.422;2023-05-02T09:18:41;102438.53;;;9.66;76.28
64844;BME280;51310;52.198;5.422;2023-05-02T09:21:20;102439.69;;;9.75;77.03
64844;BME280;51310;52.198;5.422;2023-05-02T09:23:52;102442.75;;;9.38;75.84
64844;BME280;51310;52.198;5.422;2023-05-02T09:26:26;102440.63;;;9.49;78.10
64844;BME280;51310;52.198;5.422;2023-05-02T09:28:58;102444.88;;;9.48;72.73
64844;BME280;51310;52.198;5.422;2023-05-02T09:31:30;102448.03;;;9.87;72.96
64844;BME280;51310;52.198;5.422;2023-05-02T09:34:12;102454.41;;;9.76;72.39
64844;BME280;51310;52.198;5.422;2023-05-02T09:36:47;102450.75;;;9.54;73.92
64844;BME280;51310;52.198;5.422;2023-05-02T09:39:19;102447.19;;;9.74;74.61
64844;BME280;51310;52.198;5.422;2023-05-02T09:41:46;102457.16;;;10.19;74.44
64844;BME280;51310;52.198;5.422;2023-05-02T09:44:18;102463.38;;;10.49;71.52
64844;BME280;51310;52.198;5.422;2023-05-02T09:46:48;102460.72;;;9.93;72.82
64844;BME280;51310;52.198;5.422;2023-05-02T09:49:15;102466.06;;;9.94;71.49
64844;BME280;51310;52.198;5.422;2023-05-02T09:51:48;102465.41;;;10.10;71.63
64844;BME280;51310;52.198;5.422;2023-05-02T09:54:35;102464.19;;;10.69;70.57
64844;BME280;51310;52.198;5.422;2023-05-02T09:57:01;102470.19;;;10.48;68.31
64844;BME280;51310;52.198;5.422;2023-05-02T09:59:28;102475.81;;;9.97;69.84
64844;BME280;51310;52.198;5.422;2023-05-02T10:02:00;102468.66;;;10.36;71.03
64844;BME280;51310;52.198;5.422;2023-05-02T10:04:27;102468.41;;;10.27;71.13
64844;BME280;51310;52.198;5.422;2023-05-02T10:06:54;102474.16;;;10.80;67.38
64844;BME280;51310;52.198;5.422;2023-05-02T10:09:21;102465.97;;;10.56;64.26
64844;BME280;51310;52.198;5.422;2023-05-02T10:11:52;102461.84;;;11.28;62.67
64844;BME280;51310;52.198;5.422;2023-05-02T10:14:21;102467.06;;;10.51;64.29
64844;BME280;51310;52.198;5.422;2023-05-02T10:22:21;102485.03;;;10.36;65.58
64844;BME280;51310;52.198;5.422;2023-05-02T10:24:52;102490.00;;;10.00;66.41
64844;BME280;51310;52.198;5.422;2023-05-02T10:27:18;102491.91;;;9.81;65.86
64844;BME280;51310;52.198;5.422;2023-05-02T10:29:45;102486.13;;;10.04;63.21
64844;BME280;51310;52.198;5.422;2023-05-02T10:32:16;102488.72;;;11.16;62.05
64844;BME280;51310;52.198;5.422;2023-05-02T10:34:43;102497.22;;;10.52;63.26
64844;BME280;51310;52.198;5.422;2023-05-02T10:37:11;102495.53;;;10.11;64.95
64844;BME280;51310;52.198;5.422;2023-05-02T10:39:37;102491.69;;;10.41;65.91
64844;BME280;51310;52.198;5.422;2023-05-02T10:42:04;102492.03;;;10.37;64.64
64844;BME280;51310;52.198;5.422;2023-05-02T10:44:35;102487.66;;;10.43;64.07
64844;BME280;51310;52.198;5.422;2023-05-02T10:47:24;102498.19;;;10.59;64.12
64844;BME280;51310;52.198;5.422;2023-05-02T10:50:00;102491.06;;;10.85;67.14
64844;BME280;51310;52.198;5.422;2023-05-02T10:52:30;102503.53;;;10.68;65.72
64844;BME280;51310;52.198;5.422;2023-05-02T10:55:20;102502.06;;;10.63;65.87
64844;BME280;51310;52.198;5.422;2023-05-02T11:00:32;102500.88;;;10.39;66.25
64844;BME280;51310;52.198;5.422;2023-05-02T11:03:01;102506.44;;;10.50;64.81
64844;BME280;51310;52.198;5.422;2023-05-02T11:05:28;102495.75;;;10.54;62.05
64844;BME280;51310;52.198;5.422;2023-05-02T11:10:44;102516.16;;;11.29;59.70
64844;BME280;51310;52.198;5.422;2023-05-02T11:13:10;102526.63;;;10.19;63.48
64844;BME280;51310;52.198;5.422;2023-05-02T11:18:09;102508.47;;;10.52;64.07
64844;BME280;51310;52.198;5.422;2023-05-02T11:20:41;102502.28;;;10.79;63.05
64844;BME280;51310;52.198;5.422;2023-05-02T11:25:42;102512.81;;;11.38;64.90
64844;BME280;51310;52.198;5.422;2023-05-02T11:28:38;102510.97;;;11.01;64.27
64844;BME280;51310;52.198;5.422;2023-05-02T11:31:07;102519.59;;;10.94;64.41
64844;BME280;51310;52.198;5.422;2023-05-02T11:33:33;102531.00;;;10.33;66.45
64844;BME280;51310;52.198;5.422;2023-05-02T11:35:59;102513.19;;;11.05;64.76
64844;BME280;51310;52.198;5.422;2023-05-02T11:38:27;102522.00;;;11.14;63.44
64844;BME280;51310;52.198;5.422;2023-05-02T11:41:00;102516.66;;;10.98;63.82
64844;BME280;51310;52.198;5.422;2023-05-02T11:43:28;102519.84;;;11.39;62.26
64844;BME280;51310;52.198;5.422;2023-05-02T11:45:55;102521.47;;;11.74;60.71
64844;BME280;51310;52.198;5.422;2023-05-02T11:48:22;102524.44;;;11.13;62.59
64844;BME280;51310;52.198;5.422;2023-05-02T11:50:57;102535.31;;;10.54;63.86
64844;BME280;51310;52.198;5.422;2023-05-02T11:53:27;102527.31;;;10.80;64.45
64844;BME280;51310;52.198;5.422;2023-05-02T11:55:59;102532.38;;;10.24;63.86
64844;BME280;51310;52.198;5.422;2023-05-02T11:58:29;102535.66;;;10.50;64.19
64844;BME280;51310;52.198;5.422;2023-05-02T12:00:58;102543.53;;;10.93;63.17
64844;BME280;51310;52.198;5.422;2023-05-02T12:03:32;102538.06;;;11.47;64.11
64844;BME280;51310;52.198;5.422;2023-05-02T12:06:16;102546.72;;;10.56;62.97
64844;BME280;51310;52.198;5.422;2023-05-02T12:08:45;102544.38;;;10.72;61.59
64844;BME280;51310;52.198;5.422;2023-05-02T12:11:15;102550.88;;;10.90;61.78
64844;BME280;51310;52.198;5.422;2023-05-02T12:13:46;102553.25;;;10.81;58.64
64844;BME280;51310;52.198;5.422;2023-05-02T12:16:13;102555.56;;;10.58;60.98
64844;BME280;51310;52.198;5.422;2023-05-02T12:18:39;102569.22;;;10.10;63.58
64844;BME280;51310;52.198;5.422;2023-05-02T12:21:06;102567.66;;;10.52;61.59
64844;BME280;51310;52.198;5.422;2023-05-02T12:23:32;102571.84;;;10.44;60.98
64844;BME280;51310;52.198;5.422;2023-05-02T12:25:58;102577.09;;;10.66;60.21
64844;BME280;51310;52.198;5.422;2023-05-02T12:28:24;102562.06;;;10.76;60.25
64844;BME280;51310;52.198;5.422;2023-05-02T12:30:50;102576.19;;;10.65;61.08
64844;BME280;51310;52.198;5.422;2023-05-02T12:33:17;102575.50;;;10.39;61.91
64844;BME280;51310;52.198;5.422;2023-05-02T12:35:43;102576.25;;;9.91;63.32
64844;BME280;51310;52.198;5.422;2023-05-02T12:38:18;102578.88;;;10.25;61.46
64844;BME280;51310;52.198;5.422;2023-05-02T12:40:52;102580.38;;;10.58;60.65
64844;BME280;51310;52.198;5.422;2023-05-02T12:43:20;102583.09;;;10.94;62.23
64844;BME280;51310;52.198;5.422;2023-05-02T12:45:47;102573.00;;;11.02;59.41
64844;BME280;51310;52.198;5.422;2023-05-02T12:48:24;102567.13;;;11.25;60.69
64844;BME280;51310;52.198;5.422;2023-05-02T12:50:52;102595.47;;;10.62;61.26
64844;BME280;51310;52.198;5.422;2023-05-02T12:53:42;102597.34;;;10.70;61.49
64844;BME280;51310;52.198;5.422;2023-05-02T12:56:12;102595.78;;;10.51;62.45
64844;BME280;51310;52.198;5.422;2023-05-02T12:58:46;102603.97;;;10.68;60.74
64844;BME280;51310;52.198;5.422;2023-05-02T13:01:15;102594.50;;;10.96;62.27
64844;BME280;51310;52.198;5.422;2023-05-02T13:03:42;102582.94;;;11.14;60.38
64844;BME280;51310;52.198;5.422;2023-05-02T13:06:09;102592.91;;;10.62;61.81
64844;BME280;51310;52.198;5.422;2023-05-02T13:08:35;102588.22;;;10.86;64.17
64844;BME280;51310;52.198;5.422;2023-05-02T13:11:04;102596.47;;;10.77;61.28
64844;BME280;51310;52.198;5.422;2023-05-02T13:13:30;102586.78;;;10.88;60.56
64844;BME280;51310;52.198;5.422;2023-05-02T13:15:57;102583.06;;;10.86;60.72
64844;BME280;51310;52.198;5.422;2023-05-02T13:18:22;102573.34;;;11.05;59.48
64844;BME280;51310;52.198;5.422;2023-05-02T13:20:48;102584.00;;;10.94;60.22
64844;BME280;51310;52.198;5.422;2023-05-02T13:23:14;102584.97;;;11.16;59.96
64844;BME280;51310;52.198;5.422;2023-05-02T13:25:41;102585.19;;;11.25;60.57
64844;BME280;51310;52.198;5.422;2023-05-02T13:28:07;102589.97;;;11.15;60.80
64844;BME280;51310;52.198;5.422;2023-05-02T13:30:32;102592.50;;;11.07;60.53
64844;BME280;51310;52.198;5.422;2023-05-02T13:32:58;102592.91;;;11.18;58.48
64844;BME280;51310;52.198;5.422;2023-05-02T13:35:24;102594.41;;;11.44;59.54
64844;BME280;51310;52.198;5.422;2023-05-02T13:37:52;102597.34;;;11.33;59.83